sensor_id;sensor_type;location;lat;lon;timestamp;pressure;altitude;pressure_sealevel;temperature;humidity
58967;BME280;44744;51.894;5.080;2022-09-25T00:00:43;101722.55;;;10.51;77.00
58967;BME280;44744;51.894;5.080;2022-09-25T00:01:47;101726.60;;;10.52;77.00
58967;BME280;44744;51.894;5.080;2022-09-25T00:02:48;101728.38;;;10.51;77.09
58967;BME280;44744;51.894;5.080;2022-09-25T00:03:51;101728.05;;;10.51;76.99
58967;BME280;44744;51.894;5.080;2022-09-25T00:04:52;101732.85;;;10.50;76.93
58967;BME280;44744;51.894;5.080;2022-09-25T00:05:58;101727.75;;;10.49;77.09
58967;BME280;44744;51.894;5.080;2022-09-25T00:06:59;101730.45;;;10.49;77.07
58967;BME280;44744;51.894;5.080;2022-09-25T00:08:00;101725.89;;;10.47;77.05
58967;BME280;44744;51.894;5.080;2022-09-25T00:09:00;101730.30;;;10.48;77.02
58967;BME280;44744;51.894;5.080;2022-09-25T00:10:09;101728.00;;;10.48;77.07
58967;BME280;44744;51.894;5.080;2022-09-25T00:11:12;101727.13;;;10.47;77.09
58967;BME280;44744;51.894;5.080;2022-09-25T00:12:16;101730.86;;;10.47;77.06
58967;BME280;44744;51.894;5.080;2022-09-25T00:13:19;101730.18;;;10.46;77.07
58967;BME280;44744;51.894;5.080;2022-09-25T00:14:24;101733.60;;;10.45;76.97
58967;BME280;44744;51.894;5.080;2022-09-25T00:15:25;101734.58;;;10.42;77.08
58967;BME280;44744;51.894;5.080;2022-09-25T00:16:30;101731.77;;;10.42;77.06
58967;BME280;44744;51.894;5.080;2022-09-25T00:17:31;101729.14;;;10.41;77.03
58967;BME280;44744;51.894;5.080;2022-09-25T00:18:31;101729.17;;;10.41;77.08
58967;BME280;44744;51.894;5.080;2022-09-25T00:19:31;101730.96;;;10.40;77.08
58967;BME280;44744;51.894;5.080;2022-09-25T00:20:32;101733.80;;;10.40;77.08
58967;BME280;44744;51.894;5.080;2022-09-25T00:21:33;101735.94;;;10.39;77.10
58967;BME280;44744;51.894;5.080;2022-09-25T00:22:34;101733.66;;;10.39;77.18
58967;BME280;44744;51.894;5.080;2022-09-25T00:23:34;101736.66;;;10.39;77.08
58967;BME280;44744;51.894;5.080;2022-09-25T00:24:35;101738.31;;;10.38;77.16
58967;BME280;44744;51.894;5.080;2022-09-25T00:25:35;101740.82;;;10.37;77.14
58967;BME280;44744;51.894;5.080;2022-09-25T00:26:37;101739.42;;;10.36;77.16
58967;BME280;44744;51.894;5.080;2022-09-25T00:27:39;101742.46;;;10.35;77.10
58967;BME280;44744;51.894;5.080;2022-09-25T00:28:41;101740.53;;;10.34;77.11
58967;BME280;44744;51.894;5.080;2022-09-25T00:29:41;101739.36;;;10.33;77.06
58967;BME280;44744;51.894;5.080;2022-09-25T00:30:42;101740.95;;;10.32;77.08
58967;BME280;44744;51.894;5.080;2022-09-25T00:31:42;101742.57;;;10.32;77.08
58967;BME280;44744;51.894;5.080;2022-09-25T00:32:43;101741.20;;;10.30;77.20
58967;BME280;44744;51.894;5.080;2022-09-25T00:33:43;101739.06;;;10.31;77.19
58967;BME280;44744;51.894;5.080;2022-09-25T00:34:43;101740.46;;;10.31;77.30
58967;BME280;44744;51.894;5.080;2022-09-25T00:35:44;101738.06;;;10.29;77.27
58967;BME280;44744;51.894;5.080;2022-09-25T00:36:44;101741.56;;;10.30;77.23
58967;BME280;44744;51.894;5.080;2022-09-25T00:37:44;101741.04;;;10.30;77.27
58967;BME280;44744;51.894;5.080;2022-09-25T00:38:45;101742.81;;;10.30;77.24
58967;BME280;44744;51.894;5.080;2022-09-25T00:39:45;101740.72;;;10.29;77.14
58967;BME280;44744;51.894;5.080;2022-09-25T00:40:46;101740.42;;;10.28;77.24
58967;BME280;44744;51.894;5.080;2022-09-25T00:41:46;101744.01;;;10.27;77.25
58967;BME280;44744;51.894;5.080;2022-09-25T00:42:46;101742.83;;;10.25;77.19
58967;BME280;44744;51.894;5.080;2022-09-25T00:43:49;101746.31;;;10.22;77.11
58967;BME280;44744;51.894;5.080;2022-09-25T00:45:00;101747.27;;;10.20;77.14
58967;BME280;44744;51.894;5.080;2022-09-25T00:46:01;101746.60;;;10.19;77.29
58967;BME280;44744;51.894;5.080;2022-09-25T00:47:04;101746.48;;;10.17;77.27
58967;BME280;44744;51.894;5.080;2022-09-25T00:48:06;101744.38;;;10.17;77.21
58967;BME280;44744;51.894;5.080;2022-09-25T00:49:17;101745.67;;;10.15;77.27
58967;BME280;44744;51.894;5.080;2022-09-25T00:50:47;101745.36;;;10.15;77.29
58967;BME280;44744;51.894;5.080;2022-09-25T00:51:56;101747.18;;;10.13;77.39
58967;BME280;44744;51.894;5.080;2022-09-25T00:53:04;101744.89;;;10.13;77.45
58967;BME280;44744;51.894;5.080;2022-09-25T00:54:11;101747.02;;;10.13;77.42
58967;BME280;44744;51.894;5.080;2022-09-25T00:55:14;101743.31;;;10.13;77.37
58967;BME280;44744;51.894;5.080;2022-09-25T00:56:15;101745.98;;;10.12;77.40
58967;BME280;44744;51.894;5.080;2022-09-25T00:57:19;101747.42;;;10.11;77.43
58967;BME280;44744;51.894;5.080;2022-09-25T00:58:22;101746.53;;;10.12;77.34
58967;BME280;44744;51.894;5.080;2022-09-25T00:59:37;101744.95;;;10.12;77.49
58967;BME280;44744;51.894;5.080;2022-09-25T01:00:39;101747.77;;;10.12;77.46
58967;BME280;44744;51.894;5.080;2022-09-25T01:01:40;101747.27;;;10.11;77.42
58967;BME280;44744;51.894;5.080;2022-09-25T01:02:48;101748.51;;;10.11;77.47
58967;BME280;44744;51.894;5.080;2022-09-25T01:03:50;101745.85;;;10.11;77.53
58967;BME280;44744;51.894;5.080;2022-09-25T01:04:51;101745.33;;;10.11;77.48
58967;BME280;44744;51.894;5.080;2022-09-25T01:05:52;101746.41;;;10.10;77.47
58967;BME280;44744;51.894;5.080;2022-09-25T01:06:53;101747.15;;;10.10;77.43
58967;BME280;44744;51.894;5.080;2022-09-25T01:07:56;101746.33;;;10.08;77.47
58967;BME280;44744;51.894;5.080;2022-09-25T01:09:04;101744.59;;;10.07;77.41
58967;BME280;44744;51.894;5.080;2022-09-25T01:10:06;101744.44;;;10.06;77.52
58967;BME280;44744;51.894;5.080;2022-09-25T01:11:07;101748.65;;;10.07;77.49
58967;BME280;44744;51.894;5.080;2022-09-25T01:12:08;101745.86;;;10.06;77.52
58967;BME280;44744;51.894;5.080;2022-09-25T01:13:09;101743.23;;;10.06;77.54
58967;BME280;44744;51.894;5.080;2022-09-25T01:14:11;101742.16;;;10.06;77.48
58967;BME280;44744;51.894;5.080;2022-09-25T01:15:13;101741.98;;;10.05;77.47
58967;BME280;44744;51.894;5.080;2022-09-25T01:16:38;101741.33;;;10.04;77.55
58967;BME280;44744;51.894;5.080;2022-09-25T01:22:09;101743.61;;;10.00;77.52
58967;BME280;44744;51.894;5.080;2022-09-25T01:24:37;101745.64;;;9.98;77.49
58967;BME280;44744;51.894;5.080;2022-09-25T01:27:20;101748.57;;;9.96;77.56
58967;BME280;44744;51.894;5.080;2022-09-25T01:28:49;101746.30;;;9.94;77.51
58967;BME280;44744;51.894;5.080;2022-09-25T01:30:06;101745.11;;;9.94;77.59
58967;BME280;44744;51.894;5.080;2022-09-25T01:31:18;101747.41;;;9.93;77.66
58967;BME280;44744;51.894;5.080;2022-09-25T01:33:45;101743.19;;;9.92;77.51
58967;BME280;44744;51.894;5.080;2022-09-25T01:34:49;101745.89;;;9.91;77.49
58967;BME280;44744;51.894;5.080;2022-09-25T01:38:24;101744.41;;;9.88;77.56
58967;BME280;44744;51.894;5.080;2022-09-25T01:39:37;101739.16;;;9.87;77.47
58967;BME280;44744;51.894;5.080;2022-09-25T01:40:44;101743.96;;;9.86;77.51
58967;BME280;44744;51.894;5.080;2022-09-25T01:42:09;101743.64;;;9.85;77.53
58967;BME280;44744;51.894;5.080;2022-09-25T01:43:16;101742.10;;;9.84;77.56
58967;BME280;44744;51.894;5.080;2022-09-25T01:44:52;101742.52;;;9.82;77.50
58967;BME280;44744;51.894;5.080;2022-09-25T01:47:21;101748.02;;;9.77;77.36
58967;BME280;44744;51.894;5.080;2022-09-25T01:48:29;101749.80;;;9.77;77.45
58967;BME280;44744;51.894;5.080;2022-09-25T01:49:42;101750.57;;;9.75;77.49
58967;BME280;44744;51.894;5.080;2022-09-25T01:50:56;101749.38;;;9.73;77.43
58967;BME280;44744;51.894;5.080;2022-09-25T01:52:02;101749.09;;;9.72;77.44
58967;BME280;44744;51.894;5.080;2022-09-25T01:53:11;101748.74;;;9.72;77.49
58967;BME280;44744;51.894;5.080;2022-09-25T01:54:33;101747.73;;;9.70;77.49
58967;BME280;44744;51.894;5.080;2022-09-25T01:55:45;101745.98;;;9.70;77.42
58967;BME280;44744;51.894;5.080;2022-09-25T01:58:09;101747.39;;;9.70;77.43
58967;BME280;44744;51.894;5.080;2022-09-25T01:59:15;101744.65;;;9.68;77.47
58967;BME280;44744;51.894;5.080;2022-09-25T02:00:21;101743.80;;;9.67;77.42
58967;BME280;44744;51.894;5.080;2022-09-25T02:01:27;101742.06;;;9.66;77.41
58967;BME280;44744;51.894;5.080;2022-09-25T02:02:31;101741.76;;;9.65;77.53
58967;BME280;44744;51.894;5.080;2022-09-25T02:03:45;101742.14;;;9.64;77.46
58967;BME280;44744;51.894;5.080;2022-09-25T02:05:56;101734.48;;;9.61;77.47
58967;BME280;44744;51.894;5.080;2022-09-25T02:07:04;101733.97;;;9.60;77.51
58967;BME280;44744;51.894;5.080;2022-09-25T02:08:14;101733.49;;;9.59;77.53
58967;BME280;44744;51.894;5.080;2022-09-25T02:10:42;101734.63;;;9.57;77.46
58967;BME280;44744;51.894;5.080;2022-09-25T02:11:48;101734.12;;;9.56;77.47
58967;BME280;44744;51.894;5.080;2022-09-25T02:12:53;101735.96;;;9.54;77.50
58967;BME280;44744;51.894;5.080;2022-09-25T02:14:00;101734.58;;;9.53;77.39
58967;BME280;44744;51.894;5.080;2022-09-25T02:15:08;101739.56;;;9.52;77.35
58967;BME280;44744;51.894;5.080;2022-09-25T02:16:14;101737.17;;;9.50;77.31
58967;BME280;44744;51.894;5.080;2022-09-25T02:17:28;101736.38;;;9.47;77.35
58967;BME280;44744;51.894;5.080;2022-09-25T02:18:32;101734.89;;;9.45;77.27
58967;BME280;44744;51.894;5.080;2022-09-25T02:19:33;101737.95;;;9.44;77.27
58967;BME280;44744;51.894;5.080;2022-09-25T02:20:35;101735.34;;;9.42;77.22
58967;BME280;44744;51.894;5.080;2022-09-25T02:21:49;101738.91;;;9.40;77.20
58967;BME280;44744;51.894;5.080;2022-09-25T02:22:54;101740.75;;;9.38;77.16
58967;BME280;44744;51.894;5.080;2022-09-25T02:25:22;101738.09;;;9.34;77.14
58967;BME280;44744;51.894;5.080;2022-09-25T02:26:28;101739.90;;;9.33;77.26
58967;BME280;44744;51.894;5.080;2022-09-25T02:27:29;101738.72;;;9.31;77.12
58967;BME280;44744;51.894;5.080;2022-09-25T02:28:30;101740.55;;;9.30;77.05
58967;BME280;44744;51.894;5.080;2022-09-25T02:29:31;101742.05;;;9.27;77.01
58967;BME280;44744;51.894;5.080;2022-09-25T02:30:32;101744.78;;;9.24;76.95
58967;BME280;44744;51.894;5.080;2022-09-25T02:31:37;101747.16;;;9.21;76.89
58967;BME280;44744;51.894;5.080;2022-09-25T02:32:39;101743.59;;;9.18;76.86
58967;BME280;44744;51.894;5.080;2022-09-25T02:33:39;101741.79;;;9.14;76.67
58967;BME280;44744;51.894;5.080;2022-09-25T02:34:40;101744.68;;;9.12;76.67
58967;BME280;44744;51.894;5.080;2022-09-25T02:35:41;101747.59;;;9.09;76.67
58967;BME280;44744;51.894;5.080;2022-09-25T02:36:42;101746.65;;;9.06;76.61
58967;BME280;44744;51.894;5.080;2022-09-25T02:37:42;101749.55;;;9.03;76.66
58967;BME280;44744;51.894;5.080;2022-09-25T02:38:43;101746.79;;;9.02;76.76
58967;BME280;44744;51.894;5.080;2022-09-25T02:39:47;101744.36;;;9.01;76.86
58967;BME280;44744;51.894;5.080;2022-09-25T02:41:00;101745.95;;;9.00;76.75
58967;BME280;44744;51.894;5.080;2022-09-25T02:42:25;101745.09;;;9.00;76.87
58967;BME280;44744;51.894;5.080;2022-09-25T02:45:35;101746.80;;;8.96;76.98
58967;BME280;44744;51.894;5.080;2022-09-25T02:46:44;101743.86;;;8.94;77.00
58967;BME280;44744;51.894;5.080;2022-09-25T02:48:09;101743.72;;;8.94;76.85
58967;BME280;44744;51.894;5.080;2022-09-25T02:50:22;101743.59;;;8.93;77.09
58967;BME280;44744;51.894;5.080;2022-09-25T02:51:11;101739.03;;;8.91;77.23
58967;BME280;44744;51.894;5.080;2022-09-25T02:53:40;101739.02;;;8.92;77.19
58967;BME280;44744;51.894;5.080;2022-09-25T02:55:11;101736.88;;;8.93;77.10
58967;BME280;44744;51.894;5.080;2022-09-25T02:56:29;101738.27;;;8.93;77.18
58967;BME280;44744;51.894;5.080;2022-09-25T02:57:48;101739.44;;;8.95;77.26
58967;BME280;44744;51.894;5.080;2022-09-25T02:58:54;101738.01;;;8.96;77.32
58967;BME280;44744;51.894;5.080;2022-09-25T02:59:59;101737.30;;;8.96;77.31
58967;BME280;44744;51.894;5.080;2022-09-25T03:01:19;101736.02;;;8.97;77.23
58967;BME280;44744;51.894;5.080;2022-09-25T03:02:31;101736.23;;;8.96;77.24
58967;BME280;44744;51.894;5.080;2022-09-25T03:03:33;101734.29;;;8.96;77.22
58967;BME280;44744;51.894;5.080;2022-09-25T03:04:35;101734.46;;;8.96;77.27
58967;BME280;44744;51.894;5.080;2022-09-25T03:05:37;101731.28;;;8.96;77.33
58967;BME280;44744;51.894;5.080;2022-09-25T03:06:38;101732.45;;;8.98;77.35
58967;BME280;44744;51.894;5.080;2022-09-25T03:07:39;101734.87;;;9.00;77.36
58967;BME280;44744;51.894;5.080;2022-09-25T03:08:43;101734.52;;;9.00;77.27
58967;BME280;44744;51.894;5.080;2022-09-25T03:09:46;101737.52;;;9.00;77.28
58967;BME280;44744;51.894;5.080;2022-09-25T03:10:48;101734.89;;;8.99;77.31
58967;BME280;44744;51.894;5.080;2022-09-25T03:11:48;101736.46;;;8.99;77.29
58967;BME280;44744;51.894;5.080;2022-09-25T03:12:51;101737.87;;;8.99;77.36
58967;BME280;44744;51.894;5.080;2022-09-25T03:14:55;101735.61;;;8.99;77.29
58967;BME280;44744;51.894;5.080;2022-09-25T03:17:03;101740.60;;;8.97;77.25
58967;BME280;44744;51.894;5.080;2022-09-25T03:18:05;101739.39;;;8.97;77.24
58967;BME280;44744;51.894;5.080;2022-09-25T03:19:05;101739.60;;;8.95;77.18
58967;BME280;44744;51.894;5.080;2022-09-25T03:20:06;101739.66;;;8.94;77.22
58967;BME280;44744;51.894;5.080;2022-09-25T03:21:07;101736.55;;;8.92;77.24
58967;BME280;44744;51.894;5.080;2022-09-25T03:22:07;101736.38;;;8.91;77.30
58967;BME280;44744;51.894;5.080;2022-09-25T03:23:08;101737.09;;;8.91;77.20
58967;BME280;44744;51.894;5.080;2022-09-25T03:24:08;101732.89;;;8.91;77.23
58967;BME280;44744;51.894;5.080;2022-09-25T03:25:08;101732.02;;;8.90;77.33
58967;BME280;44744;51.894;5.080;2022-09-25T03:26:09;101731.34;;;8.89;77.35
58967;BME280;44744;51.894;5.080;2022-09-25T03:27:11;101731.19;;;8.88;77.26
58967;BME280;44744;51.894;5.080;2022-09-25T03:28:11;101732.79;;;8.88;77.38
58967;BME280;44744;51.894;5.080;2022-09-25T03:29:13;101730.73;;;8.86;77.26
58967;BME280;44744;51.894;5.080;2022-09-25T03:30:13;101728.52;;;8.84;77.35
58967;BME280;44744;51.894;5.080;2022-09-25T03:31:14;101727.39;;;8.80;77.33
58967;BME280;44744;51.894;5.080;2022-09-25T03:32:14;101725.33;;;8.79;77.30
58967;BME280;44744;51.894;5.080;2022-09-25T03:33:14;101726.96;;;8.78;77.28
58967;BME280;44744;51.894;5.080;2022-09-25T03:34:16;101726.63;;;8.77;77.31
58967;BME280;44744;51.894;5.080;2022-09-25T03:35:17;101729.52;;;8.75;77.35
58967;BME280;44744;51.894;5.080;2022-09-25T03:36:20;101730.44;;;8.74;77.18
58967;BME280;44744;51.894;5.080;2022-09-25T03:37:23;101730.30;;;8.73;77.28
58967;BME280;44744;51.894;5.080;2022-09-25T03:38:23;101728.77;;;8.71;77.30
58967;BME280;44744;51.894;5.080;2022-09-25T03:39:24;101728.81;;;8.69;77.49
58967;BME280;44744;51.894;5.080;2022-09-25T03:40:24;101729.89;;;8.69;77.50
58967;BME280;44744;51.894;5.080;2022-09-25T03:41:27;101726.93;;;8.68;77.50
58967;BME280;44744;51.894;5.080;2022-09-25T03:42:29;101727.33;;;8.66;77.45
58967;BME280;44744;51.894;5.080;2022-09-25T03:43:29;101727.70;;;8.66;77.43
58967;BME280;44744;51.894;5.080;2022-09-25T03:44:29;101725.23;;;8.66;77.42
58967;BME280;44744;51.894;5.080;2022-09-25T03:45:30;101718.77;;;8.64;77.57
58967;BME280;44744;51.894;5.080;2022-09-25T03:46:33;101721.74;;;8.65;77.46
58967;BME280;44744;51.894;5.080;2022-09-25T03:47:34;101718.95;;;8.64;77.51
58967;BME280;44744;51.894;5.080;2022-09-25T03:48:34;101721.23;;;8.65;77.57
58967;BME280;44744;51.894;5.080;2022-09-25T03:49:35;101717.70;;;8.64;77.50
58967;BME280;44744;51.894;5.080;2022-09-25T03:50:35;101720.50;;;8.65;77.61
58967;BME280;44744;51.894;5.080;2022-09-25T03:51:36;101723.84;;;8.65;77.53
58967;BME280;44744;51.894;5.080;2022-09-25T03:52:36;101721.55;;;8.66;77.60
58967;BME280;44744;51.894;5.080;2022-09-25T03:53:36;101721.02;;;8.65;77.66
58967;BME280;44744;51.894;5.080;2022-09-25T03:54:40;101724.52;;;8.66;77.66
58967;BME280;44744;51.894;5.080;2022-09-25T03:56:06;101724.55;;;8.66;77.70
58967;BME280;44744;51.894;5.080;2022-09-25T03:57:07;101726.16;;;8.64;77.59
58967;BME280;44744;51.894;5.080;2022-09-25T03:58:07;101720.21;;;8.63;77.75
58967;BME280;44744;51.894;5.080;2022-09-25T03:59:08;101726.35;;;8.64;77.69
58967;BME280;44744;51.894;5.080;2022-09-25T04:00:08;101723.52;;;8.64;77.65
58967;BME280;44744;51.894;5.080;2022-09-25T04:01:10;101722.08;;;8.65;77.64
58967;BME280;44744;51.894;5.080;2022-09-25T04:02:10;101720.85;;;8.65;77.57
58967;BME280;44744;51.894;5.080;2022-09-25T04:03:14;101718.60;;;8.64;77.51
58967;BME280;44744;51.894;5.080;2022-09-25T04:04:14;101718.27;;;8.63;77.58
58967;BME280;44744;51.894;5.080;2022-09-25T04:05:44;101717.39;;;8.63;77.75
58967;BME280;44744;51.894;5.080;2022-09-25T04:06:44;101721.15;;;8.61;77.73
58967;BME280;44744;51.894;5.080;2022-09-25T04:07:44;101720.16;;;8.60;77.70
58967;BME280;44744;51.894;5.080;2022-09-25T04:08:47;101724.01;;;8.60;77.66
58967;BME280;44744;51.894;5.080;2022-09-25T04:09:47;101725.23;;;8.61;77.73
58967;BME280;44744;51.894;5.080;2022-09-25T04:10:47;101727.34;;;8.61;77.77
58967;BME280;44744;51.894;5.080;2022-09-25T04:11:48;101721.70;;;8.61;77.94
58967;BME280;44744;51.894;5.080;2022-09-25T04:12:48;101726.10;;;8.61;77.81
58967;BME280;44744;51.894;5.080;2022-09-25T04:13:48;101727.30;;;8.61;77.84
58967;BME280;44744;51.894;5.080;2022-09-25T04:14:49;101726.08;;;8.61;77.95
58967;BME280;44744;51.894;5.080;2022-09-25T04:15:49;101729.40;;;8.62;77.95
58967;BME280;44744;51.894;5.080;2022-09-25T04:16:49;101726.92;;;8.63;77.82
58967;BME280;44744;51.894;5.080;2022-09-25T04:17:50;101726.73;;;8.63;78.01
58967;BME280;44744;51.894;5.080;2022-09-25T04:18:51;101723.55;;;8.63;77.93
58967;BME280;44744;51.894;5.080;2022-09-25T04:19:51;101721.44;;;8.63;77.87
58967;BME280;44744;51.894;5.080;2022-09-25T04:20:51;101723.58;;;8.63;77.99
58967;BME280;44744;51.894;5.080;2022-09-25T04:21:52;101722.21;;;8.61;77.84
58967;BME280;44744;51.894;5.080;2022-09-25T04:22:52;101724.70;;;8.61;77.92
58967;BME280;44744;51.894;5.080;2022-09-25T04:23:52;101725.11;;;8.59;77.87
58967;BME280;44744;51.894;5.080;2022-09-25T04:24:53;101725.29;;;8.59;77.88
58967;BME280;44744;51.894;5.080;2022-09-25T04:25:55;101725.14;;;8.58;77.91
58967;BME280;44744;51.894;5.080;2022-09-25T04:26:56;101724.77;;;8.58;77.79
58967;BME280;44744;51.894;5.080;2022-09-25T04:27:56;101725.52;;;8.58;77.94
58967;BME280;44744;51.894;5.080;2022-09-25T04:28:57;101724.48;;;8.57;77.89
58967;BME280;44744;51.894;5.080;2022-09-25T04:29:59;101723.09;;;8.56;77.91
58967;BME280;44744;51.894;5.080;2022-09-25T04:31:21;101718.19;;;8.55;77.81
58967;BME280;44744;51.894;5.080;2022-09-25T04:32:21;101716.63;;;8.54;78.01
58967;BME280;44744;51.894;5.080;2022-09-25T04:33:21;101719.26;;;8.54;77.87
58967;BME280;44744;51.894;5.080;2022-09-25T04:34:22;101719.77;;;8.55;77.97
58967;BME280;44744;51.894;5.080;2022-09-25T04:35:22;101717.44;;;8.56;78.01
58967;BME280;44744;51.894;5.080;2022-09-25T04:36:22;101721.27;;;8.58;78.05
58967;BME280;44744;51.894;5.080;2022-09-25T04:37:23;101719.14;;;8.58;78.09
58967;BME280;44744;51.894;5.080;2022-09-25T04:38:24;101718.77;;;8.59;78.12
58967;BME280;44744;51.894;5.080;2022-09-25T04:39:24;101715.98;;;8.58;78.04
58967;BME280;44744;51.894;5.080;2022-09-25T04:40:26;101714.77;;;8.58;78.12
58967;BME280;44744;51.894;5.080;2022-09-25T04:41:26;101715.82;;;8.57;78.07
58967;BME280;44744;51.894;5.080;2022-09-25T04:42:27;101715.10;;;8.57;78.05
58967;BME280;44744;51.894;5.080;2022-09-25T04:43:33;101715.45;;;8.57;78.06
58967;BME280;44744;51.894;5.080;2022-09-25T04:44:34;101714.21;;;8.58;78.17
58967;BME280;44744;51.894;5.080;2022-09-25T04:45:37;101710.84;;;8.58;78.14
58967;BME280;44744;51.894;5.080;2022-09-25T04:46:37;101709.38;;;8.60;78.20
58967;BME280;44744;51.894;5.080;2022-09-25T04:47:37;101709.86;;;8.61;78.14
58967;BME280;44744;51.894;5.080;2022-09-25T04:48:38;101707.90;;;8.62;78.08
58967;BME280;44744;51.894;5.080;2022-09-25T04:49:39;101706.98;;;8.63;78.17
58967;BME280;44744;51.894;5.080;2022-09-25T04:50:48;101702.91;;;8.64;78.22
58967;BME280;44744;51.894;5.080;2022-09-25T04:51:48;101705.20;;;8.64;78.11
58967;BME280;44744;51.894;5.080;2022-09-25T04:52:49;101700.30;;;8.63;78.16
58967;BME280;44744;51.894;5.080;2022-09-25T04:53:49;101702.75;;;8.63;78.18
58967;BME280;44744;51.894;5.080;2022-09-25T04:54:50;101701.34;;;8.63;78.28
58967;BME280;44744;51.894;5.080;2022-09-25T04:55:50;101705.04;;;8.63;78.24
58967;BME280;44744;51.894;5.080;2022-09-25T04:56:50;101700.99;;;8.63;78.14
58967;BME280;44744;51.894;5.080;2022-09-25T04:57:52;101702.62;;;8.62;78.03
58967;BME280;44744;51.894;5.080;2022-09-25T04:58:52;101704.20;;;8.62;78.12
58967;BME280;44744;51.894;5.080;2022-09-25T04:59:52;101704.63;;;8.60;78.23
58967;BME280;44744;51.894;5.080;2022-09-25T05:00:53;101708.55;;;8.59;77.84
58967;BME280;44744;51.894;5.080;2022-09-25T05:01:53;101706.46;;;8.58;77.94
58967;BME280;44744;51.894;5.080;2022-09-25T05:02:54;101704.53;;;8.57;78.00
58967;BME280;44744;51.894;5.080;2022-09-25T05:03:54;101707.01;;;8.57;78.13
58967;BME280;44744;51.894;5.080;2022-09-25T05:04:54;101706.14;;;8.57;78.08
58967;BME280;44744;51.894;5.080;2022-09-25T05:05:55;101702.26;;;8.57;78.20
58967;BME280;44744;51.894;5.080;2022-09-25T05:06:55;101707.02;;;8.57;78.02
58967;BME280;44744;51.894;5.080;2022-09-25T05:07:58;101703.11;;;8.57;78.10
58967;BME280;44744;51.894;5.080;2022-09-25T05:08:58;101704.89;;;8.58;78.25
58967;BME280;44744;51.894;5.080;2022-09-25T05:11:58;101704.29;;;8.54;78.16
58967;BME280;44744;51.894;5.080;2022-09-25T05:13:00;101703.45;;;8.52;77.94
58967;BME280;44744;51.894;5.080;2022-09-25T05:14:03;101704.37;;;8.51;78.06
58967;BME280;44744;51.894;5.080;2022-09-25T05:15:04;101703.85;;;8.51;78.05
58967;BME280;44744;51.894;5.080;2022-09-25T05:16:05;101707.21;;;8.50;78.07
58967;BME280;44744;51.894;5.080;2022-09-25T05:17:05;101709.55;;;8.49;78.13
58967;BME280;44744;51.894;5.080;2022-09-25T05:18:12;101708.17;;;8.48;77.98
58967;BME280;44744;51.894;5.080;2022-09-25T05:19:14;101709.09;;;8.47;77.98
58967;BME280;44744;51.894;5.080;2022-09-25T05:20:15;101711.23;;;8.46;77.90
58967;BME280;44744;51.894;5.080;2022-09-25T05:21:15;101705.81;;;8.45;78.00
58967;BME280;44744;51.894;5.080;2022-09-25T05:22:16;101710.75;;;8.44;77.96
58967;BME280;44744;51.894;5.080;2022-09-25T05:23:16;101713.08;;;8.43;77.95
58967;BME280;44744;51.894;5.080;2022-09-25T05:24:17;101715.23;;;8.42;77.96
58967;BME280;44744;51.894;5.080;2022-09-25T05:25:17;101709.84;;;8.39;77.72
58967;BME280;44744;51.894;5.080;2022-09-25T05:26:17;101713.41;;;8.38;77.69
58967;BME280;44744;51.894;5.080;2022-09-25T05:27:17;101713.48;;;8.35;77.76
58967;BME280;44744;51.894;5.080;2022-09-25T05:28:18;101711.98;;;8.32;77.84
58967;BME280;44744;51.894;5.080;2022-09-25T05:29:18;101706.61;;;8.30;77.67
58967;BME280;44744;51.894;5.080;2022-09-25T05:30:18;101706.36;;;8.27;77.59
58967;BME280;44744;51.894;5.080;2022-09-25T05:31:19;101707.30;;;8.25;77.62
58967;BME280;44744;51.894;5.080;2022-09-25T05:32:19;101705.41;;;8.23;77.67
58967;BME280;44744;51.894;5.080;2022-09-25T05:33:19;101705.38;;;8.24;77.69
58967;BME280;44744;51.894;5.080;2022-09-25T05:34:20;101706.59;;;8.25;77.85
58967;BME280;44744;51.894;5.080;2022-09-25T05:35:21;101706.41;;;8.25;77.88
58967;BME280;44744;51.894;5.080;2022-09-25T05:36:22;101710.80;;;8.25;78.00
58967;BME280;44744;51.894;5.080;2022-09-25T05:37:22;101712.39;;;8.25;77.97
58967;BME280;44744;51.894;5.080;2022-09-25T05:38:23;101710.10;;;8.25;77.80
58967;BME280;44744;51.894;5.080;2022-09-25T05:39:23;101712.58;;;8.25;77.89
58967;BME280;44744;51.894;5.080;2022-09-25T05:40:24;101712.58;;;8.25;77.82
58967;BME280;44744;51.894;5.080;2022-09-25T05:41:25;101713.14;;;8.24;77.93
58967;BME280;44744;51.894;5.080;2022-09-25T05:42:25;101711.95;;;8.23;77.73
58967;BME280;44744;51.894;5.080;2022-09-25T05:43:25;101713.95;;;8.20;77.69
58967;BME280;44744;51.894;5.080;2022-09-25T05:44:25;101713.27;;;8.19;77.63
58967;BME280;44744;51.894;5.080;2022-09-25T05:45:26;101713.87;;;8.17;77.57
58967;BME280;44744;51.894;5.080;2022-09-25T05:46:26;101708.70;;;8.13;77.66
58967;BME280;44744;51.894;5.080;2022-09-25T05:47:27;101711.56;;;8.12;77.39
58967;BME280;44744;51.894;5.080;2022-09-25T05:48:27;101710.17;;;8.12;77.71
58967;BME280;44744;51.894;5.080;2022-09-25T05:49:27;101710.55;;;8.11;77.44
58967;BME280;44744;51.894;5.080;2022-09-25T05:50:28;101708.98;;;8.11;77.58
58967;BME280;44744;51.894;5.080;2022-09-25T05:51:29;101711.10;;;8.10;77.63
58967;BME280;44744;51.894;5.080;2022-09-25T05:52:30;101707.41;;;8.10;77.59
58967;BME280;44744;51.894;5.080;2022-09-25T05:53:31;101709.52;;;8.10;77.61
58967;BME280;44744;51.894;5.080;2022-09-25T05:54:31;101707.77;;;8.10;77.69
58967;BME280;44744;51.894;5.080;2022-09-25T05:55:31;101706.02;;;8.10;77.59
58967;BME280;44744;51.894;5.080;2022-09-25T05:56:32;101708.14;;;8.09;77.62
58967;BME280;44744;51.894;5.080;2022-09-25T05:57:33;101708.15;;;8.09;77.43
58967;BME280;44744;51.894;5.080;2022-09-25T05:58:34;101712.05;;;8.08;77.63
58967;BME280;44744;51.894;5.080;2022-09-25T05:59:34;101709.29;;;8.06;77.53
58967;BME280;44744;51.894;5.080;2022-09-25T06:00:34;101709.48;;;8.05;77.46
58967;BME280;44744;51.894;5.080;2022-09-25T06:01:35;101711.98;;;8.05;77.48